Spirit Of Mount Vernon — WDC4321 — position and weather

sailwx.info

Track history (hours):
 
Tides and Currents Weather Stations Pressure Air Temp Water Temp Dewpoint Dewpoint Depression Visibility Wind Speed Wind Dir Waves Ship Positions

Spirit Of Mount Vernon

Owner: Spirit Cruises, washington, DC. More information available from US FCC via Universal Licensing System and Coast Guard Vessel Documentation Center.

Last reported at 2017-Sep-21 05:00 UTC. Time now 2017-Sep-21 05:12 UTC.
Position N 38°42' W 077°03'.

Length 50 m; draft 2.3 m.

Type: Passenger vessel. MMSI: 367022930.

Date/timePositionNaut miles runAvg speedWind from/ knotsBaromVisibWave heightAir tempDewpointWater temp
2017-Sep-21 05:00N 38°42' W 077°03'4 8.6
2017-Sep-21 04:30N 38°39' W 077°08'4 7.4
2017-Sep-21 04:00N 38°36' W 077°11'41 6.9
2017-Sep-20 22:02N 38°07' W 076°33'010.2
2017-Sep-20 21:59N 38°07' W 076°32'510.1
2017-Sep-20 21:29N 38°04' W 076°28'510.3
2017-Sep-20 21:00N 38°01' W 076°22'68 9.7
2017-Sep-20 13:59N 36°53' W 076°20'3 6.4
2017-Sep-20 13:30N 36°51' W 076°18'1 0.0
2017-Sep-18 12:33N 36°50' W 076°17'0 0.4
2017-Sep-18 12:30N 36°50' W 076°17'4 7.1
2017-Sep-18 12:00N 36°53' W 076°20'6410.4
2017-Sep-18 05:51N 37°56' W 076°15'710.5
2017-Sep-18 05:12N 38°01' W 076°22'210.2
2017-Sep-18 04:58N 38°02' W 076°24'510.3
2017-Sep-18 04:30N 38°05' W 076°29'45 7.7
2017-Sep-17 22:39N 38°37' W 077°10'3 9.0
2017-Sep-17 22:22N 38°38' W 077°08'3 8.8
2017-Sep-17 21:59N 38°42' W 077°06'4 8.2
2017-Sep-17 21:29N 38°45' W 077°02'4 9.2
2017-Sep-17 21:00N 38°49' W 077°02'4 6.5
2017-Sep-17 20:27N 38°52' W 077°01'0 0.0
2017-Sep-17 19:58N 38°52' W 077°01'0 0.0
2017-Sep-17 19:27N 38°52' W 077°01'0 0.0
2017-Sep-17 19:00N 38°52' W 077°01'4 7.4
2017-Sep-17 18:31N 38°49' W 077°02'510.3
2017-Sep-17 18:00N 38°44' W 077°02'3 3.3
2017-Sep-17 17:06N 38°42' W 077°05'110.7
2017-Sep-17 17:00N 38°42' W 077°04'1 1.1
2017-Sep-17 16:06N 38°42' W 077°05'111.0
2017-Sep-17 16:00N 38°42' W 077°04'1 1.1
2017-Sep-17 15:07N 38°42' W 077°05'111.0
2017-Sep-17 15:00N 38°42' W 077°03'2 1.2
2017-Sep-17 13:42N 38°42' W 077°05'311.1
2017-Sep-17 13:28N 38°43' W 077°02'511.0
2017-Sep-17 13:00N 38°48' W 077°02'4 8.6
2017-Sep-17 12:30N 38°52' W 077°01'0 0.0
2017-Sep-17 11:59N 38°52' W 077°01'0 0.0
2017-Sep-17 11:30N 38°52' W 077°01'0 0.0
2017-Sep-16 19:01N 38°52' W 077°01'0 0.0
2017-Sep-16 18:59N 38°52' W 077°01'2 4.8
2017-Sep-16 18:30N 38°50' W 077°02'510.8
2017-Sep-16 18:00N 38°45' W 077°02'4 4.0
2017-Sep-16 17:07N 38°42' W 077°05'1 9.9
2017-Sep-16 17:00N 38°42' W 077°04'1 1.3
2017-Sep-16 16:06N 38°42' W 077°05'110.5
2017-Sep-16 16:00N 38°42' W 077°04'1 1.4
2017-Sep-16 15:10N 38°42' W 077°05'2 9.8
2017-Sep-16 15:00N 38°42' W 077°03'2 1.2
2017-Sep-16 13:44N 38°42' W 077°05'3 9.7
2017-Sep-16 13:25N 38°44' W 077°02'510.7
2017-Sep-16 12:59N 38°49' W 077°02'4 7.8
2017-Sep-16 12:30N 38°52' W 077°01'0 0.0
2017-Sep-16 11:59N 38°52' W 077°01'0 0.0
2017-Sep-16 11:29N 38°52' W 077°01'0 0.0
2017-Sep-15 18:53N 38°52' W 077°01'3 8.3
2017-Sep-15 18:30N 38°49' W 077°02'510.0
2017-Sep-15 18:00N 38°44' W 077°02'3 4.2
2017-Sep-15 17:11N 38°42' W 077°05'2 9.4
2017-Sep-15 17:00N 38°42' W 077°03'2 2.4
2017-Sep-15 16:14N 38°42' W 077°05'3 8.5
2017-Sep-15 15:56N 38°43' W 077°02'3 1.2
2017-Sep-15 13:49N 38°42' W 077°05'3 8.8
2017-Sep-15 13:27N 38°44' W 077°02'4 9.9
2017-Sep-15 13:00N 38°49' W 077°02'4 7.8
2017-Sep-15 12:30N 38°52' W 077°01'0 0.0
2017-Sep-15 11:59N 38°52' W 077°01'0 0.0
2017-Sep-15 11:30N 38°52' W 077°01'0 0.0
2017-Sep-13 19:57N 38°52' W 077°01'1 2.1
2017-Sep-13 19:29N 38°52' W 077°02'3 6.6
2017-Sep-13 18:59N 38°48' W 077°02'1 1.1
2017-Sep-13 18:30N 38°49' W 077°02'4 7.3
2017-Sep-13 18:00N 38°52' W 077°01'0 0.1
2017-Sep-13 17:29N 38°52' W 077°01'0 0.0
2017-Sep-13 17:00N 38°52' W 077°01'0 0.0
2017-Sep-13 16:30N 38°52' W 077°01'0 0.0
2017-Sep-13 15:57N 38°52' W 077°01'0 0.0
2017-Sep-13 15:28N 38°52' W 077°01'0 0.0
2017-Sep-12 23:59N 38°52' W 077°01'2 3.8
2017-Sep-12 23:30N 38°51' W 077°01'4 7.3
2017-Sep-12 22:59N 38°47' W 077°02'3 6.1
2017-Sep-12 22:30N 38°50' W 077°02'3 4.9
2017-Sep-12 21:58N 38°52' W 077°01'0 0.0
2017-Sep-12 21:28N 38°52' W 077°01'0 0.0
2017-Sep-12 20:59N 38°52' W 077°01'0 0.0
2017-Sep-12 20:28N 38°52' W 077°01'0 0.0
2017-Sep-12 19:58N 38°52' W 077°01'0 0.0
2017-Sep-12 19:29N 38°52' W 077°01'0 0.0
2017-Sep-12 18:58N 38°52' W 077°01'0 0.0
2017-Sep-12 18:29N 38°52' W 077°01'  
Track history (hours):
 
Tides and Currents Weather Stations Pressure Air Temp Water Temp Dewpoint Dewpoint Depression Visibility Wind Speed Wind Dir Waves Ship Positions

Spirit Of Mount Vernon

Owner: Spirit Cruises, washington, DC. More information available from US FCC via Universal Licensing System and Coast Guard Vessel Documentation Center.

Last reported at 2017-Sep-21 05:00 UTC. Time now 2017-Sep-21 05:12 UTC.
Position N 38°42' W 077°03'.

Length 50 m; draft 2.3 m.

Type: Passenger vessel. MMSI: 367022930.

Date/timePositionNaut miles runAvg speedWind from/ knotsBaromVisibWave heightAir tempDewpointWater temp
2017-Sep-21 05:00N 38°42' W 077°03'4 8.6
2017-Sep-21 04:30N 38°39' W 077°08'4 7.4
2017-Sep-21 04:00N 38°36' W 077°11'41 6.9
2017-Sep-20 22:02N 38°07' W 076°33'010.2
2017-Sep-20 21:59N 38°07' W 076°32'510.1
2017-Sep-20 21:29N 38°04' W 076°28'510.3
2017-Sep-20 21:00N 38°01' W 076°22'68 9.7
2017-Sep-20 13:59N 36°53' W 076°20'3 6.4
2017-Sep-20 13:30N 36°51' W 076°18'1 0.0
2017-Sep-18 12:33N 36°50' W 076°17'0 0.4
2017-Sep-18 12:30N 36°50' W 076°17'4 7.1
2017-Sep-18 12:00N 36°53' W 076°20'6410.4
2017-Sep-18 05:51N 37°56' W 076°15'710.5
2017-Sep-18 05:12N 38°01' W 076°22'210.2
2017-Sep-18 04:58N 38°02' W 076°24'510.3
2017-Sep-18 04:30N 38°05' W 076°29'45 7.7
2017-Sep-17 22:39N 38°37' W 077°10'3 9.0
2017-Sep-17 22:22N 38°38' W 077°08'3 8.8
2017-Sep-17 21:59N 38°42' W 077°06'4 8.2
2017-Sep-17 21:29N 38°45' W 077°02'4 9.2
2017-Sep-17 21:00N 38°49' W 077°02'4 6.5
2017-Sep-17 20:27N 38°52' W 077°01'0 0.0
2017-Sep-17 19:58N 38°52' W 077°01'0 0.0
2017-Sep-17 19:27N 38°52' W 077°01'0 0.0
2017-Sep-17 19:00N 38°52' W 077°01'4 7.4
2017-Sep-17 18:31N 38°49' W 077°02'510.3
2017-Sep-17 18:00N 38°44' W 077°02'3 3.3
2017-Sep-17 17:06N 38°42' W 077°05'110.7
2017-Sep-17 17:00N 38°42' W 077°04'1 1.1
2017-Sep-17 16:06N 38°42' W 077°05'111.0
2017-Sep-17 16:00N 38°42' W 077°04'1 1.1
2017-Sep-17 15:07N 38°42' W 077°05'111.0
2017-Sep-17 15:00N 38°42' W 077°03'2 1.2
2017-Sep-17 13:42N 38°42' W 077°05'311.1
2017-Sep-17 13:28N 38°43' W 077°02'511.0
2017-Sep-17 13:00N 38°48' W 077°02'4 8.6
2017-Sep-17 12:30N 38°52' W 077°01'0 0.0
2017-Sep-17 11:59N 38°52' W 077°01'0 0.0
2017-Sep-17 11:30N 38°52' W 077°01'0 0.0
2017-Sep-16 19:01N 38°52' W 077°01'0 0.0
2017-Sep-16 18:59N 38°52' W 077°01'2 4.8
2017-Sep-16 18:30N 38°50' W 077°02'510.8
2017-Sep-16 18:00N 38°45' W 077°02'4 4.0
2017-Sep-16 17:07N 38°42' W 077°05'1 9.9
2017-Sep-16 17:00N 38°42' W 077°04'1 1.3
2017-Sep-16 16:06N 38°42' W 077°05'110.5
2017-Sep-16 16:00N 38°42' W 077°04'1 1.4
2017-Sep-16 15:10N 38°42' W 077°05'2 9.8
2017-Sep-16 15:00N 38°42' W 077°03'2 1.2
2017-Sep-16 13:44N 38°42' W 077°05'3 9.7
2017-Sep-16 13:25N 38°44' W 077°02'510.7
2017-Sep-16 12:59N 38°49' W 077°02'4 7.8
2017-Sep-16 12:30N 38°52' W 077°01'0 0.0
2017-Sep-16 11:59N 38°52' W 077°01'0 0.0
2017-Sep-16 11:29N 38°52' W 077°01'0 0.0
2017-Sep-15 18:53N 38°52' W 077°01'3 8.3
2017-Sep-15 18:30N 38°49' W 077°02'510.0
2017-Sep-15 18:00N 38°44' W 077°02'3 4.2
2017-Sep-15 17:11N 38°42' W 077°05'2 9.4
2017-Sep-15 17:00N 38°42' W 077°03'2 2.4
2017-Sep-15 16:14N 38°42' W 077°05'3 8.5
2017-Sep-15 15:56N 38°43' W 077°02'3 1.2
2017-Sep-15 13:49N 38°42' W 077°05'3 8.8
2017-Sep-15 13:27N 38°44' W 077°02'4 9.9
2017-Sep-15 13:00N 38°49' W 077°02'4 7.8
2017-Sep-15 12:30N 38°52' W 077°01'0 0.0
2017-Sep-15 11:59N 38°52' W 077°01'0 0.0
2017-Sep-15 11:30N 38°52' W 077°01'0 0.0
2017-Sep-13 19:57N 38°52' W 077°01'1 2.1
2017-Sep-13 19:29N 38°52' W 077°02'3 6.6
2017-Sep-13 18:59N 38°48' W 077°02'1 1.1
2017-Sep-13 18:30N 38°49' W 077°02'4 7.3
2017-Sep-13 18:00N 38°52' W 077°01'0 0.1
2017-Sep-13 17:29N 38°52' W 077°01'0 0.0
2017-Sep-13 17:00N 38°52' W 077°01'0 0.0
2017-Sep-13 16:30N 38°52' W 077°01'0 0.0
2017-Sep-13 15:57N 38°52' W 077°01'0 0.0
2017-Sep-13 15:28N 38°52' W 077°01'0 0.0
2017-Sep-12 23:59N 38°52' W 077°01'2 3.8
2017-Sep-12 23:30N 38°51' W 077°01'4 7.3
2017-Sep-12 22:59N 38°47' W 077°02'3 6.1
2017-Sep-12 22:30N 38°50' W 077°02'3 4.9
2017-Sep-12 21:58N 38°52' W 077°01'0 0.0
2017-Sep-12 21:28N 38°52' W 077°01'0 0.0
2017-Sep-12 20:59N 38°52' W 077°01'0 0.0
2017-Sep-12 20:28N 38°52' W 077°01'0 0.0
2017-Sep-12 19:58N 38°52' W 077°01'0 0.0
2017-Sep-12 19:29N 38°52' W 077°01'0 0.0
2017-Sep-12 18:58N 38°52' W 077°01'0 0.0
2017-Sep-12 18:29N 38°52' W 077°01'  

Dump ship's entire track history